Superfun — ZCCL5 — position and weather

sailwx.info

Track history (hours):
 
Tides and Currents Weather Stations Pressure Air Temp Water Temp Dewpoint Dewpoint Depression Visibility Wind Speed Wind Dir Waves Ship Positions

Superfun

Last reported at 2016-Jun-28 10:24 UTC. Time now 2016-Jun-28 13:28 UTC.
Position N 43°49' E 007°48'.

Length 40 m.

Type: Other ship. MMSI: 319163000.

Date/timePositionNaut miles runAvg speedWind from/ knotsBaromVisibWave heightAir tempDewpointWater temp
2016-Jun-28 10:24N 43°49' E 007°48'  
2016-Jun-25 11:19N 43°42' E 007°23'7 1.0
2016-Jun-25 04:05N 43°37' E 007°17'5 9.8
2016-Jun-25 03:32N 43°32' E 007°14'11 0.2
2016-Jun-23 08:32N 43°28' E 007°00'5 1.8
2016-Jun-23 05:31N 43°33' E 007°01'0 0.0
2016-Jun-23 04:31N 43°33' E 007°01'0 0.0
2016-Jun-23 03:31N 43°33' E 007°01'0 0.0
2016-Jun-23 02:25N 43°33' E 007°01'0 0.0
2016-Jun-23 01:25N 43°33' E 007°01'0 0.0
2016-Jun-23 00:25N 43°33' E 007°01'0 0.0
2016-Jun-22 23:28N 43°33' E 007°01'0 0.0
2016-Jun-22 22:13N 43°33' E 007°01'0 0.0
2016-Jun-22 21:28N 43°33' E 007°01'0 0.0
2016-Jun-22 20:28N 43°33' E 007°01'0 0.0
2016-Jun-22 19:28N 43°33' E 007°01'0 0.0
2016-Jun-22 18:16N 43°33' E 007°01'0 0.0
2016-Jun-22 10:25N 43°33' E 007°01'0 0.0
2016-Jun-22 09:31N 43°33' E 007°01'0 0.0
2016-Jun-22 06:16N 43°33' E 007°01'0 0.0
2016-Jun-22 05:28N 43°33' E 007°01'0 0.0
2016-Jun-22 04:31N 43°33' E 007°01'0 0.0
2016-Jun-22 02:07N 43°33' E 007°01'0 0.0
2016-Jun-22 01:31N 43°33' E 007°01'0 0.0
2016-Jun-22 00:31N 43°33' E 007°01'0 0.0
2016-Jun-21 21:31N 43°33' E 007°01'0 0.0
2016-Jun-21 20:31N 43°33' E 007°01'0 0.0
2016-Jun-21 17:31N 43°33' E 007°01'0 0.0
2016-Jun-21 16:31N 43°33' E 007°01'0 0.0
2016-Jun-21 13:31N 43°33' E 007°01'0 0.0
2016-Jun-21 12:31N 43°33' E 007°01'0 0.0
2016-Jun-21 11:31N 43°33' E 007°01'0 0.0
2016-Jun-21 09:07N 43°33' E 007°01'0 0.0
2016-Jun-21 08:31N 43°33' E 007°01'0 0.0
2016-Jun-21 07:31N 43°33' E 007°01'0 0.0
2016-Jun-20 20:16N 43°33' E 007°01'0 0.0
2016-Jun-20 19:31N 43°33' E 007°01'0 0.0
2016-Jun-20 18:31N 43°33' E 007°01'0 0.0
2016-Jun-20 15:31N 43°33' E 007°01'0 0.0
2016-Jun-20 14:31N 43°33' E 007°01'0 0.0
2016-Jun-20 11:31N 43°33' E 007°01'0 0.0
2016-Jun-20 10:31N 43°33' E 007°01'0 0.0
2016-Jun-20 07:31N 43°33' E 007°01'0 0.0
2016-Jun-20 06:31N 43°33' E 007°01'0 0.0
2016-Jun-20 03:25N 43°33' E 007°01'0 0.0
2016-Jun-20 02:31N 43°33' E 007°01'0 0.0
2016-Jun-20 01:31N 43°33' E 007°01'0 0.0
2016-Jun-19 23:07N 43°33' E 007°01'0 0.0
2016-Jun-19 22:31N 43°33' E 007°01'0 0.0
2016-Jun-19 21:31N 43°33' E 007°01'0 0.0
2016-Jun-19 18:31N 43°33' E 007°01'0 0.0
2016-Jun-19 17:31N 43°33' E 007°01'0 0.0
2016-Jun-19 14:31N 43°33' E 007°01'0 0.0
2016-Jun-19 13:28N 43°33' E 007°01'0 0.0
2016-Jun-19 12:31N 43°33' E 007°01'0 0.0
2016-Jun-19 10:28N 43°33' E 007°01'0 0.0
2016-Jun-19 09:31N 43°33' E 007°01'0 0.0
2016-Jun-19 08:31N 43°33' E 007°01'0 0.0
2016-Jun-19 07:16N 43°33' E 007°01'4 4.9
2016-Jun-19 06:33N 43°30' E 007°04'2 0.8
2016-Jun-19 04:33N 43°32' E 007°03'0 0.0
2016-Jun-19 03:33N 43°32' E 007°03'0 0.0
2016-Jun-19 01:30N 43°32' E 007°03'0 0.0
2016-Jun-19 00:33N 43°32' E 007°03'0 0.0
2016-Jun-18 23:33N 43°32' E 007°03'0 0.0
2016-Jun-18 22:30N 43°32' E 007°03'0 0.0
2016-Jun-18 20:33N 43°32' E 007°03'0 0.0
2016-Jun-18 19:33N 43°32' E 007°03'0 0.0
2016-Jun-18 18:33N 43°32' E 007°03'2 1.7
2016-Jun-18 17:33N 43°32' E 007°05'2 1.6
2016-Jun-18 16:31N 43°32' E 007°03'0 0.0
2016-Jun-18 15:31N 43°32' E 007°03'0 0.0
2016-Jun-18 13:14N 43°32' E 007°03'1 1.5
2016-Jun-18 12:34N 43°32' E 007°02'  
Track history (hours):
 
Tides and Currents Weather Stations Pressure Air Temp Water Temp Dewpoint Dewpoint Depression Visibility Wind Speed Wind Dir Waves Ship Positions

Superfun

Last reported at 2016-Jun-28 10:24 UTC. Time now 2016-Jun-28 13:28 UTC.
Position N 43°49' E 007°48'.

Length 40 m.

Type: Other ship. MMSI: 319163000.

Date/timePositionNaut miles runAvg speedWind from/ knotsBaromVisibWave heightAir tempDewpointWater temp
2016-Jun-28 10:24N 43°49' E 007°48'  
2016-Jun-25 11:19N 43°42' E 007°23'7 1.0
2016-Jun-25 04:05N 43°37' E 007°17'5 9.8
2016-Jun-25 03:32N 43°32' E 007°14'11 0.2
2016-Jun-23 08:32N 43°28' E 007°00'5 1.8
2016-Jun-23 05:31N 43°33' E 007°01'0 0.0
2016-Jun-23 04:31N 43°33' E 007°01'0 0.0
2016-Jun-23 03:31N 43°33' E 007°01'0 0.0
2016-Jun-23 02:25N 43°33' E 007°01'0 0.0
2016-Jun-23 01:25N 43°33' E 007°01'0 0.0
2016-Jun-23 00:25N 43°33' E 007°01'0 0.0
2016-Jun-22 23:28N 43°33' E 007°01'0 0.0
2016-Jun-22 22:13N 43°33' E 007°01'0 0.0
2016-Jun-22 21:28N 43°33' E 007°01'0 0.0
2016-Jun-22 20:28N 43°33' E 007°01'0 0.0
2016-Jun-22 19:28N 43°33' E 007°01'0 0.0
2016-Jun-22 18:16N 43°33' E 007°01'0 0.0
2016-Jun-22 10:25N 43°33' E 007°01'0 0.0
2016-Jun-22 09:31N 43°33' E 007°01'0 0.0
2016-Jun-22 06:16N 43°33' E 007°01'0 0.0
2016-Jun-22 05:28N 43°33' E 007°01'0 0.0
2016-Jun-22 04:31N 43°33' E 007°01'0 0.0
2016-Jun-22 02:07N 43°33' E 007°01'0 0.0
2016-Jun-22 01:31N 43°33' E 007°01'0 0.0
2016-Jun-22 00:31N 43°33' E 007°01'0 0.0
2016-Jun-21 21:31N 43°33' E 007°01'0 0.0
2016-Jun-21 20:31N 43°33' E 007°01'0 0.0
2016-Jun-21 17:31N 43°33' E 007°01'0 0.0
2016-Jun-21 16:31N 43°33' E 007°01'0 0.0
2016-Jun-21 13:31N 43°33' E 007°01'0 0.0
2016-Jun-21 12:31N 43°33' E 007°01'0 0.0
2016-Jun-21 11:31N 43°33' E 007°01'0 0.0
2016-Jun-21 09:07N 43°33' E 007°01'0 0.0
2016-Jun-21 08:31N 43°33' E 007°01'0 0.0
2016-Jun-21 07:31N 43°33' E 007°01'0 0.0
2016-Jun-20 20:16N 43°33' E 007°01'0 0.0
2016-Jun-20 19:31N 43°33' E 007°01'0 0.0
2016-Jun-20 18:31N 43°33' E 007°01'0 0.0
2016-Jun-20 15:31N 43°33' E 007°01'0 0.0
2016-Jun-20 14:31N 43°33' E 007°01'0 0.0
2016-Jun-20 11:31N 43°33' E 007°01'0 0.0
2016-Jun-20 10:31N 43°33' E 007°01'0 0.0
2016-Jun-20 07:31N 43°33' E 007°01'0 0.0
2016-Jun-20 06:31N 43°33' E 007°01'0 0.0
2016-Jun-20 03:25N 43°33' E 007°01'0 0.0
2016-Jun-20 02:31N 43°33' E 007°01'0 0.0
2016-Jun-20 01:31N 43°33' E 007°01'0 0.0
2016-Jun-19 23:07N 43°33' E 007°01'0 0.0
2016-Jun-19 22:31N 43°33' E 007°01'0 0.0
2016-Jun-19 21:31N 43°33' E 007°01'0 0.0
2016-Jun-19 18:31N 43°33' E 007°01'0 0.0
2016-Jun-19 17:31N 43°33' E 007°01'0 0.0
2016-Jun-19 14:31N 43°33' E 007°01'0 0.0
2016-Jun-19 13:28N 43°33' E 007°01'0 0.0
2016-Jun-19 12:31N 43°33' E 007°01'0 0.0
2016-Jun-19 10:28N 43°33' E 007°01'0 0.0
2016-Jun-19 09:31N 43°33' E 007°01'0 0.0
2016-Jun-19 08:31N 43°33' E 007°01'0 0.0
2016-Jun-19 07:16N 43°33' E 007°01'4 4.9
2016-Jun-19 06:33N 43°30' E 007°04'2 0.8
2016-Jun-19 04:33N 43°32' E 007°03'0 0.0
2016-Jun-19 03:33N 43°32' E 007°03'0 0.0
2016-Jun-19 01:30N 43°32' E 007°03'0 0.0
2016-Jun-19 00:33N 43°32' E 007°03'0 0.0
2016-Jun-18 23:33N 43°32' E 007°03'0 0.0
2016-Jun-18 22:30N 43°32' E 007°03'0 0.0
2016-Jun-18 20:33N 43°32' E 007°03'0 0.0
2016-Jun-18 19:33N 43°32' E 007°03'0 0.0
2016-Jun-18 18:33N 43°32' E 007°03'2 1.7
2016-Jun-18 17:33N 43°32' E 007°05'2 1.6
2016-Jun-18 16:31N 43°32' E 007°03'0 0.0
2016-Jun-18 15:31N 43°32' E 007°03'0 0.0
2016-Jun-18 13:14N 43°32' E 007°03'1 1.5
2016-Jun-18 12:34N 43°32' E 007°02'  

Dump ship's entire track history